James Creek, Pennsylvania
Current Conditions -  °F | °C
As of 12:53 AM on Thursday 23 Oct 2014 (Local Time) from KAOO Reporting Station
Overcast Overcast  
Wind Chill: 42°   Ceiling: 1700
Heat Index: 46°   Visibility: 10mi
Dew Point: 40°   Wind: 8mph
Humidity: 79%   Direction: 350°N
Pressure: 30.04"   Gusts: 21mph
Location:  40.39°N, 78.17°W
Report Text: KAOO 230453Z AUTO 35007G18KT 10SM OVC017 08/04 A3004 RMK AO2 SLP177 T00780044 401110078
Loading
Personal Weather Stations






























Interactive Weather Map
Tropical Storm Tracking
New forecast layout! Learn more

10-Day Weather Forecast

Advertisements
Track Severe Weather on mobile